MSC Lirica — HOPW — position and weather

sailwx.info

Track history (hours):
 
Tides and Currents Weather Stations Pressure Air Temp Water Temp Dewpoint Dewpoint Depression Visibility Wind Speed Wind Dir Waves Ship Positions

MSC Lirica

Operator: Mediterranean Shipping Company

Last reported at 2019-Jun-15 00:33 UTC. Time now 2019-Jun-16 15:30 UTC.
Position N 43°29' E 014°26'.

Length 275 m; draft 6.8 m.

Type: Passenger vessel. MMSI: 356042000.

Date/timePositionNaut miles runAvg speedWind from/ knotsBaromVisibWave heightAir tempDewpointWater temp
2019-Jun-15 00:33N 43°29' E 014°26'318.6
2019-Jun-15 00:25N 43°31' E 014°23'818.7
2019-Jun-15 00:00N 43°37' E 014°16'918.7
2019-Jun-14 23:30N 43°43' E 014°07'918.7
2019-Jun-14 23:00N 43°49' E 013°57'918.9
2019-Jun-14 22:31N 43°55' E 013°46'918.9
2019-Jun-14 22:00N 44°00' E 013°35'918.8
2019-Jun-14 21:30N 44°06' E 013°25'918.7
2019-Jun-14 21:00N 44°12' E 013°15'918.6
2019-Jun-14 20:30N 44°19' E 013°08'918.8
2019-Jun-14 20:00N 44°29' E 013°04'918.8
2019-Jun-14 19:31N 44°38' E 013°01'918.8
2019-Jun-14 19:00N 44°46' E 012°56'918.7
2019-Jun-14 18:30N 44°55' E 012°50'918.6
2019-Jun-14 18:00N 45°03' E 012°44'917.7
2019-Jun-14 17:30N 45°09' E 012°35'917.0
2019-Jun-14 17:00N 45°17' E 012°30'815.8
2019-Jun-14 16:30N 45°25' E 012°27'3 6.8
2019-Jun-14 16:00N 45°26' E 012°23'2 4.3
2019-Jun-14 15:30N 45°26' E 012°20'1 1.7
2019-Jun-14 14:58N 45°26' E 012°19'0 0.0
2019-Jun-14 14:28N 45°26' E 012°19'0 0.0
2019-Jun-14 13:58N 45°26' E 012°19'0 0.0
2019-Jun-14 13:28N 45°26' E 012°19'0 0.0
2019-Jun-14 12:58N 45°26' E 012°19'0 0.0
2019-Jun-14 12:28N 45°26' E 012°19'0 0.0
2019-Jun-14 11:58N 45°26' E 012°19'0 0.0
2019-Jun-14 11:25N 45°26' E 012°19'0 0.0
2019-Jun-14 10:58N 45°26' E 012°19'0 0.0
2019-Jun-14 10:28N 45°26' E 012°19'0 0.0
2019-Jun-14 09:55N 45°26' E 012°19'0 0.0
2019-Jun-14 09:28N 45°26' E 012°19'0 0.0
2019-Jun-14 08:55N 45°26' E 012°19'0 0.0
2019-Jun-14 08:28N 45°26' E 012°19'0 0.0
2019-Jun-14 07:58N 45°26' E 012°19'0 0.0
2019-Jun-14 07:28N 45°26' E 012°19'0 0.0
2019-Jun-14 07:00N 45°26' E 012°19'1 2.3
2019-Jun-14 06:30N 45°26' E 012°20'2 4.2
2019-Jun-14 06:00N 45°26' E 012°23'4 7.7
2019-Jun-14 05:30N 45°24' E 012°28'611.1
2019-Jun-14 05:00N 45°19' E 012°31'815.4
2019-Jun-14 04:31N 45°13' E 012°38'816.2
2019-Jun-14 04:00N 45°09' E 012°48'816.2
2019-Jun-14 03:30N 45°05' E 012°58'816.3
2019-Jun-14 03:01N 45°01' E 013°08'817.0
2019-Jun-14 02:31N 44°57' E 013°18'918.3
2019-Jun-14 02:01N 44°50' E 013°27'918.3
2019-Jun-14 01:30N 44°43' E 013°34'918.2
2019-Jun-14 01:00N 44°35' E 013°41'918.2
2019-Jun-14 00:31N 44°28' E 013°48'918.5
2019-Jun-14 00:00N 44°20' E 013°56'918.7
2019-Jun-13 23:31N 44°12' E 014°03'918.3
2019-Jun-13 23:00N 44°06' E 014°12'918.4
2019-Jun-13 22:30N 44°00' E 014°22'918.8
2019-Jun-13 22:00N 43°55' E 014°33'918.5
2019-Jun-13 21:30N 43°50' E 014°44'  
2019-Jun-08 00:46N 43°28' E 014°28'518.6
2019-Jun-08 00:31N 43°31' E 014°23'1018.7
2019-Jun-08 00:00N 43°38' E 014°14'918.9
2019-Jun-07 23:30N 43°44' E 014°05'1018.9
2019-Jun-07 23:00N 43°50' E 013°55'918.8
2019-Jun-07 22:30N 43°56' E 013°44'918.5
2019-Jun-07 22:00N 44°01' E 013°34'918.1
2019-Jun-07 21:30N 44°07' E 013°24'918.1
2019-Jun-07 21:00N 44°12' E 013°14'918.0
2019-Jun-07 20:30N 44°21' E 013°09'918.3
2019-Jun-07 20:00N 44°29' E 013°05'918.4
2019-Jun-07 19:30N 44°38' E 013°01'918.4
2019-Jun-07 19:00N 44°47' E 012°56'918.4
2019-Jun-07 18:30N 44°55' E 012°50'918.4
2019-Jun-07 18:00N 45°03' E 012°44'918.0
2019-Jun-07 17:30N 45°09' E 012°35'816.7
2019-Jun-07 17:00N 45°17' E 012°30'815.7
2019-Jun-07 16:30N 45°25' E 012°28'4 7.2
2019-Jun-07 16:00N 45°26' E 012°23'2 4.3
2019-Jun-07 15:30N 45°26' E 012°20'1 1.8
2019-Jun-07 14:58N 45°26' E 012°19'0 0.0
2019-Jun-07 14:28N 45°26' E 012°19'0 0.0
2019-Jun-07 13:58N 45°26' E 012°19'0 0.0
2019-Jun-07 13:28N 45°26' E 012°19'0 0.0
2019-Jun-07 12:58N 45°26' E 012°19'0 0.0
2019-Jun-07 12:28N 45°26' E 012°19'0 0.0
2019-Jun-07 11:58N 45°26' E 012°19'0 0.0
2019-Jun-07 11:28N 45°26' E 012°19'0 0.0
2019-Jun-07 10:58N 45°26' E 012°19'0 0.0
2019-Jun-07 10:28N 45°26' E 012°19'0 0.0
2019-Jun-07 09:58N 45°26' E 012°19'0 0.0
2019-Jun-07 09:28N 45°26' E 012°19'0 0.0
2019-Jun-07 08:58N 45°26' E 012°19'0 0.0
2019-Jun-07 08:28N 45°26' E 012°19'0 0.0
2019-Jun-07 07:58N 45°26' E 012°19'0 0.0
2019-Jun-07 07:28N 45°26' E 012°19'0 0.0
2019-Jun-07 06:59N 45°26' E 012°19'1 1.1
2019-Jun-07 06:30N 45°26' E 012°19'2 4.3
2019-Jun-07 06:01N 45°25' E 012°22'3 5.4
2019-Jun-07 05:31N 45°25' E 012°26'4 9.0
2019-Jun-07 05:01N 45°23' E 012°31'612.1
2019-Jun-07 04:30N 45°17' E 012°32'918.9
2019-Jun-07 04:01N 45°11' E 012°43'918.9
2019-Jun-07 03:31N 45°07' E 012°54'918.7
2019-Jun-07 03:00N 45°02' E 013°06'918.9
2019-Jun-07 02:31N 44°58' E 013°18'918.5
2019-Jun-07 02:01N 44°51' E 013°27'918.8
2019-Jun-07 01:31N 44°43' E 013°34'918.5
2019-Jun-07 01:01N 44°35' E 013°41'918.6
2019-Jun-07 00:31N 44°28' E 013°48'1019.0
2019-Jun-07 00:01N 44°20' E 013°56'1019.1
2019-Jun-06 23:30N 44°12' E 014°03'1019.0
2019-Jun-06 23:00N 44°05' E 014°12'918.8
2019-Jun-06 22:30N 43°59' E 014°23'918.9
2019-Jun-06 22:00N 43°54' E 014°33'  
Track history (hours):
 
Tides and Currents Weather Stations Pressure Air Temp Water Temp Dewpoint Dewpoint Depression Visibility Wind Speed Wind Dir Waves Ship Positions

MSC Lirica

Operator: Mediterranean Shipping Company

Last reported at 2019-Jun-15 00:33 UTC. Time now 2019-Jun-16 15:30 UTC.
Position N 43°29' E 014°26'.

Length 275 m; draft 6.8 m.

Type: Passenger vessel. MMSI: 356042000.

Date/timePositionNaut miles runAvg speedWind from/ knotsBaromVisibWave heightAir tempDewpointWater temp
2019-Jun-15 00:33N 43°29' E 014°26'318.6
2019-Jun-15 00:25N 43°31' E 014°23'818.7
2019-Jun-15 00:00N 43°37' E 014°16'918.7
2019-Jun-14 23:30N 43°43' E 014°07'918.7
2019-Jun-14 23:00N 43°49' E 013°57'918.9
2019-Jun-14 22:31N 43°55' E 013°46'918.9
2019-Jun-14 22:00N 44°00' E 013°35'918.8
2019-Jun-14 21:30N 44°06' E 013°25'918.7
2019-Jun-14 21:00N 44°12' E 013°15'918.6
2019-Jun-14 20:30N 44°19' E 013°08'918.8
2019-Jun-14 20:00N 44°29' E 013°04'918.8
2019-Jun-14 19:31N 44°38' E 013°01'918.8
2019-Jun-14 19:00N 44°46' E 012°56'918.7
2019-Jun-14 18:30N 44°55' E 012°50'918.6
2019-Jun-14 18:00N 45°03' E 012°44'917.7
2019-Jun-14 17:30N 45°09' E 012°35'917.0
2019-Jun-14 17:00N 45°17' E 012°30'815.8
2019-Jun-14 16:30N 45°25' E 012°27'3 6.8
2019-Jun-14 16:00N 45°26' E 012°23'2 4.3
2019-Jun-14 15:30N 45°26' E 012°20'1 1.7
2019-Jun-14 14:58N 45°26' E 012°19'0 0.0
2019-Jun-14 14:28N 45°26' E 012°19'0 0.0
2019-Jun-14 13:58N 45°26' E 012°19'0 0.0
2019-Jun-14 13:28N 45°26' E 012°19'0 0.0
2019-Jun-14 12:58N 45°26' E 012°19'0 0.0
2019-Jun-14 12:28N 45°26' E 012°19'0 0.0
2019-Jun-14 11:58N 45°26' E 012°19'0 0.0
2019-Jun-14 11:25N 45°26' E 012°19'0 0.0
2019-Jun-14 10:58N 45°26' E 012°19'0 0.0
2019-Jun-14 10:28N 45°26' E 012°19'0 0.0
2019-Jun-14 09:55N 45°26' E 012°19'0 0.0
2019-Jun-14 09:28N 45°26' E 012°19'0 0.0
2019-Jun-14 08:55N 45°26' E 012°19'0 0.0
2019-Jun-14 08:28N 45°26' E 012°19'0 0.0
2019-Jun-14 07:58N 45°26' E 012°19'0 0.0
2019-Jun-14 07:28N 45°26' E 012°19'0 0.0
2019-Jun-14 07:00N 45°26' E 012°19'1 2.3
2019-Jun-14 06:30N 45°26' E 012°20'2 4.2
2019-Jun-14 06:00N 45°26' E 012°23'4 7.7
2019-Jun-14 05:30N 45°24' E 012°28'611.1
2019-Jun-14 05:00N 45°19' E 012°31'815.4
2019-Jun-14 04:31N 45°13' E 012°38'816.2
2019-Jun-14 04:00N 45°09' E 012°48'816.2
2019-Jun-14 03:30N 45°05' E 012°58'816.3
2019-Jun-14 03:01N 45°01' E 013°08'817.0
2019-Jun-14 02:31N 44°57' E 013°18'918.3
2019-Jun-14 02:01N 44°50' E 013°27'918.3
2019-Jun-14 01:30N 44°43' E 013°34'918.2
2019-Jun-14 01:00N 44°35' E 013°41'918.2
2019-Jun-14 00:31N 44°28' E 013°48'918.5
2019-Jun-14 00:00N 44°20' E 013°56'918.7
2019-Jun-13 23:31N 44°12' E 014°03'918.3
2019-Jun-13 23:00N 44°06' E 014°12'918.4
2019-Jun-13 22:30N 44°00' E 014°22'918.8
2019-Jun-13 22:00N 43°55' E 014°33'918.5
2019-Jun-13 21:30N 43°50' E 014°44'  
2019-Jun-08 00:46N 43°28' E 014°28'518.6
2019-Jun-08 00:31N 43°31' E 014°23'1018.7
2019-Jun-08 00:00N 43°38' E 014°14'918.9
2019-Jun-07 23:30N 43°44' E 014°05'1018.9
2019-Jun-07 23:00N 43°50' E 013°55'918.8
2019-Jun-07 22:30N 43°56' E 013°44'918.5
2019-Jun-07 22:00N 44°01' E 013°34'918.1
2019-Jun-07 21:30N 44°07' E 013°24'918.1
2019-Jun-07 21:00N 44°12' E 013°14'918.0
2019-Jun-07 20:30N 44°21' E 013°09'918.3
2019-Jun-07 20:00N 44°29' E 013°05'918.4
2019-Jun-07 19:30N 44°38' E 013°01'918.4
2019-Jun-07 19:00N 44°47' E 012°56'918.4
2019-Jun-07 18:30N 44°55' E 012°50'918.4
2019-Jun-07 18:00N 45°03' E 012°44'918.0
2019-Jun-07 17:30N 45°09' E 012°35'816.7
2019-Jun-07 17:00N 45°17' E 012°30'815.7
2019-Jun-07 16:30N 45°25' E 012°28'4 7.2
2019-Jun-07 16:00N 45°26' E 012°23'2 4.3
2019-Jun-07 15:30N 45°26' E 012°20'1 1.8
2019-Jun-07 14:58N 45°26' E 012°19'0 0.0
2019-Jun-07 14:28N 45°26' E 012°19'0 0.0
2019-Jun-07 13:58N 45°26' E 012°19'0 0.0
2019-Jun-07 13:28N 45°26' E 012°19'0 0.0
2019-Jun-07 12:58N 45°26' E 012°19'0 0.0
2019-Jun-07 12:28N 45°26' E 012°19'0 0.0
2019-Jun-07 11:58N 45°26' E 012°19'0 0.0
2019-Jun-07 11:28N 45°26' E 012°19'0 0.0
2019-Jun-07 10:58N 45°26' E 012°19'0 0.0
2019-Jun-07 10:28N 45°26' E 012°19'0 0.0
2019-Jun-07 09:58N 45°26' E 012°19'0 0.0
2019-Jun-07 09:28N 45°26' E 012°19'0 0.0
2019-Jun-07 08:58N 45°26' E 012°19'0 0.0
2019-Jun-07 08:28N 45°26' E 012°19'0 0.0
2019-Jun-07 07:58N 45°26' E 012°19'0 0.0
2019-Jun-07 07:28N 45°26' E 012°19'0 0.0
2019-Jun-07 06:59N 45°26' E 012°19'1 1.1
2019-Jun-07 06:30N 45°26' E 012°19'2 4.3
2019-Jun-07 06:01N 45°25' E 012°22'3 5.4
2019-Jun-07 05:31N 45°25' E 012°26'4 9.0
2019-Jun-07 05:01N 45°23' E 012°31'612.1
2019-Jun-07 04:30N 45°17' E 012°32'918.9
2019-Jun-07 04:01N 45°11' E 012°43'918.9
2019-Jun-07 03:31N 45°07' E 012°54'918.7
2019-Jun-07 03:00N 45°02' E 013°06'918.9
2019-Jun-07 02:31N 44°58' E 013°18'918.5
2019-Jun-07 02:01N 44°51' E 013°27'918.8
2019-Jun-07 01:31N 44°43' E 013°34'918.5
2019-Jun-07 01:01N 44°35' E 013°41'918.6
2019-Jun-07 00:31N 44°28' E 013°48'1019.0
2019-Jun-07 00:01N 44°20' E 013°56'1019.1
2019-Jun-06 23:30N 44°12' E 014°03'1019.0
2019-Jun-06 23:00N 44°05' E 014°12'918.8
2019-Jun-06 22:30N 43°59' E 014°23'918.9
2019-Jun-06 22:00N 43°54' E 014°33'  

Dump ship's entire track history